CPX449 Details

Departure: Sacramento International Airport (KSMF)
Arrival: El Paso International Airport (KELP) at N/A
Route: RVRCT2 RALEY JSICA Q130 ROCCY KD36Q CABNO SLNNK WAZKO1
Notes:


Current Weather Information
KSMF 231253Z 00000KT 10SM CLR 12/08 A3000 RMK AO2 SLP159 T01170078
KELP 231251Z 00000KT 10SM CLR 09/M04 A3006 RMK AO2 SLP135 T00891039